sensor_id;sensor_type;location;lat;lon;timestamp;P1;durP1;ratioP1;P2;durP2;ratioP2
52456;SDS011;38369;52.840;7.082;2023-04-12T00:01:28;5.90;;;2.30;;
52456;SDS011;38369;52.840;7.082;2023-04-12T00:03:54;8.13;;;3.15;;
52456;SDS011;38369;52.840;7.082;2023-04-12T00:06:20;8.35;;;2.80;;
52456;SDS011;38369;52.840;7.082;2023-04-12T00:08:56;12.80;;;3.10;;
52456;SDS011;38369;52.840;7.082;2023-04-12T00:11:22;6.93;;;3.15;;
52456;SDS011;38369;52.840;7.082;2023-04-12T00:13:48;13.50;;;2.78;;
52456;SDS011;38369;52.840;7.082;2023-04-12T00:16:14;7.13;;;2.53;;
52456;SDS011;38369;52.840;7.082;2023-04-12T00:18:40;13.20;;;3.38;;
52456;SDS011;38369;52.840;7.082;2023-04-12T00:21:08;7.60;;;2.40;;
52456;SDS011;38369;52.840;7.082;2023-04-12T00:23:34;9.35;;;2.90;;
52456;SDS011;38369;52.840;7.082;2023-04-12T00:26:02;11.38;;;3.08;;
52456;SDS011;38369;52.840;7.082;2023-04-12T00:28:28;6.88;;;2.67;;
52456;SDS011;38369;52.840;7.082;2023-04-12T00:30:55;10.57;;;3.03;;
52456;SDS011;38369;52.840;7.082;2023-04-12T00:33:21;10.63;;;3.08;;
52456;SDS011;38369;52.840;7.082;2023-04-12T00:35:47;9.32;;;2.53;;
52456;SDS011;38369;52.840;7.082;2023-04-12T00:38:13;15.55;;;4.22;;
52456;SDS011;38369;52.840;7.082;2023-04-12T00:40:40;11.45;;;2.95;;
52456;SDS011;38369;52.840;7.082;2023-04-12T00:43:07;8.38;;;3.33;;
52456;SDS011;38369;52.840;7.082;2023-04-12T00:45:34;7.50;;;2.42;;
52456;SDS011;38369;52.840;7.082;2023-04-12T00:48:02;9.73;;;3.50;;
52456;SDS011;38369;52.840;7.082;2023-04-12T00:50:28;8.57;;;3.40;;
52456;SDS011;38369;52.840;7.082;2023-04-12T00:52:54;7.47;;;3.00;;
52456;SDS011;38369;52.840;7.082;2023-04-12T00:55:20;9.88;;;3.75;;
52456;SDS011;38369;52.840;7.082;2023-04-12T00:57:46;6.25;;;2.63;;
52456;SDS011;38369;52.840;7.082;2023-04-12T01:00:12;9.25;;;3.42;;
52456;SDS011;38369;52.840;7.082;2023-04-12T01:02:39;9.25;;;3.40;;
52456;SDS011;38369;52.840;7.082;2023-04-12T01:05:06;7.50;;;3.13;;
52456;SDS011;38369;52.840;7.082;2023-04-12T01:07:43;15.20;;;4.13;;
52456;SDS011;38369;52.840;7.082;2023-04-12T01:10:17;6.35;;;2.75;;
52456;SDS011;38369;52.840;7.082;2023-04-12T01:13:02;11.85;;;3.63;;
52456;SDS011;38369;52.840;7.082;2023-04-12T01:15:29;9.95;;;3.35;;
52456;SDS011;38369;52.840;7.082;2023-04-12T01:18:07;12.77;;;3.08;;
52456;SDS011;38369;52.840;7.082;2023-04-12T01:20:39;9.65;;;3.55;;
52456;SDS011;38369;52.840;7.082;2023-04-12T01:26:20;14.00;;;4.05;;
52456;SDS011;38369;52.840;7.082;2023-04-12T01:28:51;16.73;;;4.85;;
52456;SDS011;38369;52.840;7.082;2023-04-12T01:31:17;9.40;;;3.40;;
52456;SDS011;38369;52.840;7.082;2023-04-12T01:33:44;16.05;;;3.55;;
52456;SDS011;38369;52.840;7.082;2023-04-12T01:36:18;11.45;;;3.50;;
52456;SDS011;38369;52.840;7.082;2023-04-12T01:38:45;11.00;;;3.50;;
52456;SDS011;38369;52.840;7.082;2023-04-12T01:41:11;7.38;;;2.97;;
52456;SDS011;38369;52.840;7.082;2023-04-12T01:43:44;11.23;;;3.60;;
52456;SDS011;38369;52.840;7.082;2023-04-12T01:46:11;11.23;;;3.58;;
52456;SDS011;38369;52.840;7.082;2023-04-12T01:48:38;9.43;;;4.15;;
52456;SDS011;38369;52.840;7.082;2023-04-12T01:51:05;8.80;;;3.47;;
52456;SDS011;38369;52.840;7.082;2023-04-12T01:53:34;12.30;;;3.92;;
52456;SDS011;38369;52.840;7.082;2023-04-12T01:56:08;9.30;;;3.70;;
52456;SDS011;38369;52.840;7.082;2023-04-12T01:58:34;10.40;;;4.13;;
52456;SDS011;38369;52.840;7.082;2023-04-12T02:01:02;10.10;;;3.65;;
52456;SDS011;38369;52.840;7.082;2023-04-12T02:03:29;10.65;;;3.95;;
52456;SDS011;38369;52.840;7.082;2023-04-12T02:05:56;12.95;;;4.18;;
52456;SDS011;38369;52.840;7.082;2023-04-12T02:08:23;8.43;;;3.72;;
52456;SDS011;38369;52.840;7.082;2023-04-12T02:10:49;10.60;;;3.63;;
52456;SDS011;38369;52.840;7.082;2023-04-12T02:13:15;13.23;;;3.97;;
52456;SDS011;38369;52.840;7.082;2023-04-12T02:15:45;7.93;;;3.33;;
52456;SDS011;38369;52.840;7.082;2023-04-12T02:18:11;11.65;;;3.80;;
52456;SDS011;38369;52.840;7.082;2023-04-12T02:20:38;12.57;;;4.10;;
52456;SDS011;38369;52.840;7.082;2023-04-12T02:23:04;8.45;;;3.92;;
52456;SDS011;38369;52.840;7.082;2023-04-12T02:25:30;12.68;;;4.07;;
52456;SDS011;38369;52.840;7.082;2023-04-12T02:27:57;7.45;;;3.60;;
52456;SDS011;38369;52.840;7.082;2023-04-12T02:30:23;9.25;;;3.72;;
52456;SDS011;38369;52.840;7.082;2023-04-12T02:32:49;10.93;;;3.50;;
52456;SDS011;38369;52.840;7.082;2023-04-12T02:35:17;8.68;;;3.45;;
52456;SDS011;38369;52.840;7.082;2023-04-12T02:37:43;15.10;;;5.15;;
52456;SDS011;38369;52.840;7.082;2023-04-12T02:40:13;12.00;;;3.78;;
52456;SDS011;38369;52.840;7.082;2023-04-12T02:42:42;8.52;;;3.65;;
52456;SDS011;38369;52.840;7.082;2023-04-12T02:45:09;11.02;;;4.95;;
52456;SDS011;38369;52.840;7.082;2023-04-12T02:47:35;8.27;;;3.63;;
52456;SDS011;38369;52.840;7.082;2023-04-12T02:50:02;6.00;;;3.22;;
52456;SDS011;38369;52.840;7.082;2023-04-12T02:52:28;13.73;;;3.97;;
52456;SDS011;38369;52.840;7.082;2023-04-12T02:54:54;5.35;;;3.53;;
52456;SDS011;38369;52.840;7.082;2023-04-12T02:57:20;12.52;;;3.65;;
52456;SDS011;38369;52.840;7.082;2023-04-12T02:59:49;11.40;;;3.60;;
52456;SDS011;38369;52.840;7.082;2023-04-12T03:02:17;13.20;;;3.63;;
52456;SDS011;38369;52.840;7.082;2023-04-12T03:04:43;10.75;;;3.38;;
52456;SDS011;38369;52.840;7.082;2023-04-12T03:07:11;7.32;;;3.75;;
52456;SDS011;38369;52.840;7.082;2023-04-12T03:09:37;8.13;;;3.72;;
52456;SDS011;38369;52.840;7.082;2023-04-12T03:12:06;10.70;;;3.83;;
52456;SDS011;38369;52.840;7.082;2023-04-12T03:14:32;8.15;;;3.65;;
52456;SDS011;38369;52.840;7.082;2023-04-12T03:16:58;11.75;;;4.07;;
52456;SDS011;38369;52.840;7.082;2023-04-12T03:19:24;10.93;;;4.03;;
52456;SDS011;38369;52.840;7.082;2023-04-12T03:21:50;12.80;;;4.30;;
52456;SDS011;38369;52.840;7.082;2023-04-12T03:24:16;6.75;;;3.42;;
52456;SDS011;38369;52.840;7.082;2023-04-12T03:26:42;6.40;;;3.72;;
52456;SDS011;38369;52.840;7.082;2023-04-12T03:29:08;12.93;;;4.00;;
52456;SDS011;38369;52.840;7.082;2023-04-12T03:31:35;7.53;;;4.45;;
52456;SDS011;38369;52.840;7.082;2023-04-12T03:34:01;11.35;;;3.90;;
52456;SDS011;38369;52.840;7.082;2023-04-12T03:36:28;13.90;;;4.05;;
52456;SDS011;38369;52.840;7.082;2023-04-12T03:38:55;15.80;;;4.70;;
52456;SDS011;38369;52.840;7.082;2023-04-12T03:41:21;14.55;;;4.10;;
52456;SDS011;38369;52.840;7.082;2023-04-12T03:43:47;10.63;;;3.33;;
52456;SDS011;38369;52.840;7.082;2023-04-12T03:46:13;11.05;;;4.22;;
52456;SDS011;38369;52.840;7.082;2023-04-12T03:48:40;9.65;;;3.88;;
52456;SDS011;38369;52.840;7.082;2023-04-12T03:51:07;11.13;;;4.25;;
52456;SDS011;38369;52.840;7.082;2023-04-12T03:53:39;10.25;;;4.13;;
52456;SDS011;38369;52.840;7.082;2023-04-12T03:56:05;6.40;;;3.65;;
52456;SDS011;38369;52.840;7.082;2023-04-12T03:58:32;11.02;;;3.92;;
52456;SDS011;38369;52.840;7.082;2023-04-12T04:00:58;10.23;;;3.35;;
52456;SDS011;38369;52.840;7.082;2023-04-12T04:03:26;8.15;;;3.03;;
52456;SDS011;38369;52.840;7.082;2023-04-12T04:05:53;11.75;;;3.78;;
52456;SDS011;38369;52.840;7.082;2023-04-12T04:08:20;8.05;;;3.65;;
52456;SDS011;38369;52.840;7.082;2023-04-12T04:10:46;12.25;;;4.20;;
52456;SDS011;38369;52.840;7.082;2023-04-12T04:13:12;10.18;;;3.70;;
52456;SDS011;38369;52.840;7.082;2023-04-12T04:15:38;11.35;;;3.22;;
52456;SDS011;38369;52.840;7.082;2023-04-12T04:18:04;13.07;;;3.22;;
52456;SDS011;38369;52.840;7.082;2023-04-12T04:20:30;8.38;;;2.92;;
52456;SDS011;38369;52.840;7.082;2023-04-12T04:22:56;12.57;;;3.85;;
52456;SDS011;38369;52.840;7.082;2023-04-12T04:25:23;5.88;;;3.08;;
52456;SDS011;38369;52.840;7.082;2023-04-12T04:27:57;10.77;;;4.57;;
52456;SDS011;38369;52.840;7.082;2023-04-12T04:30:23;6.30;;;2.73;;
52456;SDS011;38369;52.840;7.082;2023-04-12T04:32:50;8.35;;;2.83;;
52456;SDS011;38369;52.840;7.082;2023-04-12T04:35:16;12.02;;;3.05;;
52456;SDS011;38369;52.840;7.082;2023-04-12T04:37:43;17.20;;;3.65;;
52456;SDS011;38369;52.840;7.082;2023-04-12T04:40:09;6.57;;;2.83;;
52456;SDS011;38369;52.840;7.082;2023-04-12T04:42:35;8.50;;;2.40;;
52456;SDS011;38369;52.840;7.082;2023-04-12T04:45:04;6.68;;;2.65;;
52456;SDS011;38369;52.840;7.082;2023-04-12T04:47:40;9.85;;;3.35;;
52456;SDS011;38369;52.840;7.082;2023-04-12T04:50:06;7.30;;;3.00;;
52456;SDS011;38369;52.840;7.082;2023-04-12T04:52:32;9.65;;;2.83;;
52456;SDS011;38369;52.840;7.082;2023-04-12T04:54:58;5.60;;;2.88;;
52456;SDS011;38369;52.840;7.082;2023-04-12T04:57:24;8.98;;;5.20;;
52456;SDS011;38369;52.840;7.082;2023-04-12T04:59:51;5.45;;;2.60;;
52456;SDS011;38369;52.840;7.082;2023-04-12T05:02:17;6.35;;;2.53;;
52456;SDS011;38369;52.840;7.082;2023-04-12T05:04:43;8.55;;;2.95;;
52456;SDS011;38369;52.840;7.082;2023-04-12T05:07:09;7.20;;;2.90;;
52456;SDS011;38369;52.840;7.082;2023-04-12T05:09:37;6.97;;;2.88;;
52456;SDS011;38369;52.840;7.082;2023-04-12T05:12:03;7.28;;;3.50;;
52456;SDS011;38369;52.840;7.082;2023-04-12T05:14:29;7.63;;;2.70;;
52456;SDS011;38369;52.840;7.082;2023-04-12T05:16:55;5.28;;;3.03;;
52456;SDS011;38369;52.840;7.082;2023-04-12T05:19:21;8.55;;;3.15;;
52456;SDS011;38369;52.840;7.082;2023-04-12T05:21:47;8.45;;;2.42;;
52456;SDS011;38369;52.840;7.082;2023-04-12T05:24:13;7.07;;;3.22;;
52456;SDS011;38369;52.840;7.082;2023-04-12T05:26:40;9.45;;;2.60;;
52456;SDS011;38369;52.840;7.082;2023-04-12T05:29:06;7.45;;;3.25;;
52456;SDS011;38369;52.840;7.082;2023-04-12T05:31:32;10.07;;;3.10;;
52456;SDS011;38369;52.840;7.082;2023-04-12T05:33:58;8.95;;;3.30;;
52456;SDS011;38369;52.840;7.082;2023-04-12T05:36:24;7.18;;;2.50;;
52456;SDS011;38369;52.840;7.082;2023-04-12T05:38:50;8.90;;;3.03;;
52456;SDS011;38369;52.840;7.082;2023-04-12T05:41:17;6.35;;;3.33;;
52456;SDS011;38369;52.840;7.082;2023-04-12T05:43:43;5.47;;;2.83;;
52456;SDS011;38369;52.840;7.082;2023-04-12T05:46:09;10.65;;;3.33;;
52456;SDS011;38369;52.840;7.082;2023-04-12T05:48:36;6.68;;;2.95;;
52456;SDS011;38369;52.840;7.082;2023-04-12T05:51:02;7.57;;;2.20;;
52456;SDS011;38369;52.840;7.082;2023-04-12T05:53:29;16.92;;;3.80;;
52456;SDS011;38369;52.840;7.082;2023-04-12T05:55:57;6.65;;;2.70;;
52456;SDS011;38369;52.840;7.082;2023-04-12T05:58:23;9.82;;;4.00;;
52456;SDS011;38369;52.840;7.082;2023-04-12T06:00:49;11.13;;;2.75;;
52456;SDS011;38369;52.840;7.082;2023-04-12T06:03:15;9.10;;;2.90;;
52456;SDS011;38369;52.840;7.082;2023-04-12T06:05:41;10.15;;;3.15;;
52456;SDS011;38369;52.840;7.082;2023-04-12T06:08:07;9.30;;;2.60;;
52456;SDS011;38369;52.840;7.082;2023-04-12T06:10:34;8.90;;;3.53;;
52456;SDS011;38369;52.840;7.082;2023-04-12T06:13:00;6.38;;;2.90;;
52456;SDS011;38369;52.840;7.082;2023-04-12T06:15:26;6.78;;;2.75;;
52456;SDS011;38369;52.840;7.082;2023-04-12T06:17:53;6.25;;;2.85;;
52456;SDS011;38369;52.840;7.082;2023-04-12T06:20:19;10.70;;;3.38;;
52456;SDS011;38369;52.840;7.082;2023-04-12T06:22:45;7.05;;;2.53;;
52456;SDS011;38369;52.840;7.082;2023-04-12T06:25:11;9.45;;;2.95;;
52456;SDS011;38369;52.840;7.082;2023-04-12T06:27:37;7.70;;;3.33;;
52456;SDS011;38369;52.840;7.082;2023-04-12T06:30:03;9.00;;;2.78;;
52456;SDS011;38369;52.840;7.082;2023-04-12T06:32:29;5.43;;;2.88;;
52456;SDS011;38369;52.840;7.082;2023-04-12T06:34:56;10.30;;;3.60;;
52456;SDS011;38369;52.840;7.082;2023-04-12T06:37:22;5.93;;;2.55;;
52456;SDS011;38369;52.840;7.082;2023-04-12T06:39:48;9.10;;;3.17;;
52456;SDS011;38369;52.840;7.082;2023-04-12T06:42:14;9.93;;;3.63;;
52456;SDS011;38369;52.840;7.082;2023-04-12T06:44:40;6.97;;;3.25;;
52456;SDS011;38369;52.840;7.082;2023-04-12T06:47:06;7.32;;;2.80;;
52456;SDS011;38369;52.840;7.082;2023-04-12T06:49:32;6.80;;;3.10;;
52456;SDS011;38369;52.840;7.082;2023-04-12T06:51:58;8.02;;;3.55;;
52456;SDS011;38369;52.840;7.082;2023-04-12T06:54:24;8.45;;;3.60;;
52456;SDS011;38369;52.840;7.082;2023-04-12T06:56:50;5.32;;;2.80;;
52456;SDS011;38369;52.840;7.082;2023-04-12T06:59:16;5.18;;;2.67;;
52456;SDS011;38369;52.840;7.082;2023-04-12T07:01:42;7.88;;;3.30;;
52456;SDS011;38369;52.840;7.082;2023-04-12T07:04:09;10.77;;;4.10;;
52456;SDS011;38369;52.840;7.082;2023-04-12T07:06:35;8.73;;;3.22;;
52456;SDS011;38369;52.840;7.082;2023-04-12T07:09:02;9.98;;;3.15;;
52456;SDS011;38369;52.840;7.082;2023-04-12T07:11:28;10.70;;;4.57;;
52456;SDS011;38369;52.840;7.082;2023-04-12T07:13:55;6.50;;;3.33;;
52456;SDS011;38369;52.840;7.082;2023-04-12T07:16:23;7.45;;;3.75;;
52456;SDS011;38369;52.840;7.082;2023-04-12T07:18:49;6.47;;;3.50;;
52456;SDS011;38369;52.840;7.082;2023-04-12T07:21:15;5.63;;;3.05;;
52456;SDS011;38369;52.840;7.082;2023-04-12T07:23:42;5.15;;;3.50;;
52456;SDS011;38369;52.840;7.082;2023-04-12T07:26:08;7.90;;;3.45;;
52456;SDS011;38369;52.840;7.082;2023-04-12T07:28:34;6.18;;;3.35;;
52456;SDS011;38369;52.840;7.082;2023-04-12T07:31:05;5.18;;;3.55;;
52456;SDS011;38369;52.840;7.082;2023-04-12T07:33:31;6.47;;;3.67;;
52456;SDS011;38369;52.840;7.082;2023-04-12T07:35:59;5.80;;;3.92;;
52456;SDS011;38369;52.840;7.082;2023-04-12T07:38:26;11.05;;;4.15;;
52456;SDS011;38369;52.840;7.082;2023-04-12T07:40:53;6.93;;;3.35;;
52456;SDS011;38369;52.840;7.082;2023-04-12T07:43:19;8.50;;;4.00;;
52456;SDS011;38369;52.840;7.082;2023-04-12T07:45:45;8.45;;;3.90;;
52456;SDS011;38369;52.840;7.082;2023-04-12T07:48:12;8.25;;;4.20;;
52456;SDS011;38369;52.840;7.082;2023-04-12T07:50:38;7.85;;;3.25;;
52456;SDS011;38369;52.840;7.082;2023-04-12T07:55:44;6.93;;;3.67;;
52456;SDS011;38369;52.840;7.082;2023-04-12T07:58:10;5.72;;;3.28;;
52456;SDS011;38369;52.840;7.082;2023-04-12T08:00:36;10.57;;;3.60;;
52456;SDS011;38369;52.840;7.082;2023-04-12T08:03:02;6.75;;;3.60;;
52456;SDS011;38369;52.840;7.082;2023-04-12T08:05:28;10.07;;;4.90;;
52456;SDS011;38369;52.840;7.082;2023-04-12T08:07:54;6.07;;;4.55;;
52456;SDS011;38369;52.840;7.082;2023-04-12T08:10:20;7.65;;;3.90;;
52456;SDS011;38369;52.840;7.082;2023-04-12T08:12:47;8.77;;;4.45;;
52456;SDS011;38369;52.840;7.082;2023-04-12T08:15:13;8.40;;;4.60;;
52456;SDS011;38369;52.840;7.082;2023-04-12T08:17:39;6.75;;;4.97;;
52456;SDS011;38369;52.840;7.082;2023-04-12T08:20:07;9.63;;;4.85;;
52456;SDS011;38369;52.840;7.082;2023-04-12T08:22:34;7.07;;;4.25;;
52456;SDS011;38369;52.840;7.082;2023-04-12T08:25:00;8.98;;;4.30;;
52456;SDS011;38369;52.840;7.082;2023-04-12T08:27:28;6.60;;;4.25;;
52456;SDS011;38369;52.840;7.082;2023-04-12T08:29:54;7.05;;;4.70;;
52456;SDS011;38369;52.840;7.082;2023-04-12T08:32:20;9.40;;;5.30;;
52456;SDS011;38369;52.840;7.082;2023-04-12T08:34:46;8.80;;;5.32;;
52456;SDS011;38369;52.840;7.082;2023-04-12T08:37:12;8.60;;;5.05;;
52456;SDS011;38369;52.840;7.082;2023-04-12T08:39:38;6.85;;;6.10;;
52456;SDS011;38369;52.840;7.082;2023-04-12T08:42:04;17.08;;;9.70;;
52456;SDS011;38369;52.840;7.082;2023-04-12T08:44:32;21.13;;;9.23;;
52456;SDS011;38369;52.840;7.082;2023-04-12T08:47:01;22.00;;;14.57;;
52456;SDS011;38369;52.840;7.082;2023-04-12T08:49:28;19.55;;;11.90;;
52456;SDS011;38369;52.840;7.082;2023-04-12T08:51:55;20.80;;;14.57;;
52456;SDS011;38369;52.840;7.082;2023-04-12T08:54:23;8.07;;;5.00;;
52456;SDS011;38369;52.840;7.082;2023-04-12T08:56:49;8.38;;;5.50;;
52456;SDS011;38369;52.840;7.082;2023-04-12T08:59:17;9.00;;;4.95;;
52456;SDS011;38369;52.840;7.082;2023-04-12T09:01:44;7.70;;;4.85;;
52456;SDS011;38369;52.840;7.082;2023-04-12T09:04:10;7.85;;;5.10;;
52456;SDS011;38369;52.840;7.082;2023-04-12T09:06:36;7.40;;;4.72;;
52456;SDS011;38369;52.840;7.082;2023-04-12T09:09:02;5.43;;;4.40;;
52456;SDS011;38369;52.840;7.082;2023-04-12T09:11:30;10.50;;;5.45;;
52456;SDS011;38369;52.840;7.082;2023-04-12T09:13:57;9.18;;;4.93;;
52456;SDS011;38369;52.840;7.082;2023-04-12T09:16:39;7.10;;;4.70;;
52456;SDS011;38369;52.840;7.082;2023-04-12T09:19:05;7.38;;;5.30;;
52456;SDS011;38369;52.840;7.082;2023-04-12T09:21:32;6.55;;;4.43;;
52456;SDS011;38369;52.840;7.082;2023-04-12T09:24:02;5.07;;;4.43;;
52456;SDS011;38369;52.840;7.082;2023-04-12T09:26:28;6.20;;;4.40;;
52456;SDS011;38369;52.840;7.082;2023-04-12T09:28:55;10.48;;;8.40;;
52456;SDS011;38369;52.840;7.082;2023-04-12T09:31:21;6.53;;;5.13;;
52456;SDS011;38369;52.840;7.082;2023-04-12T09:33:47;9.52;;;5.28;;
52456;SDS011;38369;52.840;7.082;2023-04-12T09:36:14;7.03;;;4.43;;
52456;SDS011;38369;52.840;7.082;2023-04-12T09:38:58;8.85;;;5.15;;
52456;SDS011;38369;52.840;7.082;2023-04-12T09:41:25;8.88;;;4.53;;
52456;SDS011;38369;52.840;7.082;2023-04-12T09:43:52;7.75;;;4.70;;
52456;SDS011;38369;52.840;7.082;2023-04-12T09:46:18;9.15;;;5.30;;
52456;SDS011;38369;52.840;7.082;2023-04-12T09:48:48;6.65;;;4.57;;
52456;SDS011;38369;52.840;7.082;2023-04-12T09:51:28;8.40;;;5.63;;
52456;SDS011;38369;52.840;7.082;2023-04-12T09:54:04;6.78;;;5.15;;
52456;SDS011;38369;52.840;7.082;2023-04-12T09:56:34;11.95;;;5.38;;
52456;SDS011;38369;52.840;7.082;2023-04-12T09:59:04;5.35;;;4.45;;
52456;SDS011;38369;52.840;7.082;2023-04-12T10:03:56;7.40;;;4.90;;
52456;SDS011;38369;52.840;7.082;2023-04-12T10:06:23;7.97;;;5.35;;
52456;SDS011;38369;52.840;7.082;2023-04-12T10:08:50;5.75;;;4.78;;
52456;SDS011;38369;52.840;7.082;2023-04-12T10:11:17;6.93;;;4.97;;
52456;SDS011;38369;52.840;7.082;2023-04-12T10:13:43;6.70;;;4.78;;
52456;SDS011;38369;52.840;7.082;2023-04-12T10:16:09;5.82;;;5.22;;
52456;SDS011;38369;52.840;7.082;2023-04-12T10:18:36;5.30;;;4.80;;
52456;SDS011;38369;52.840;7.082;2023-04-12T10:21:03;6.82;;;5.25;;
52456;SDS011;38369;52.840;7.082;2023-04-12T10:23:30;5.80;;;5.20;;
52456;SDS011;38369;52.840;7.082;2023-04-12T10:25:57;6.32;;;5.07;;
52456;SDS011;38369;52.840;7.082;2023-04-12T10:28:23;7.70;;;6.40;;
52456;SDS011;38369;52.840;7.082;2023-04-12T10:30:49;6.60;;;6.00;;
52456;SDS011;38369;52.840;7.082;2023-04-12T10:33:23;9.05;;;6.82;;
52456;SDS011;38369;52.840;7.082;2023-04-12T10:38:19;7.38;;;6.38;;
52456;SDS011;38369;52.840;7.082;2023-04-12T10:41:07;8.35;;;7.13;;
52456;SDS011;38369;52.840;7.082;2023-04-12T10:43:33;11.68;;;8.30;;
52456;SDS011;38369;52.840;7.082;2023-04-12T10:45:59;8.40;;;7.60;;
52456;SDS011;38369;52.840;7.082;2023-04-12T10:48:32;9.27;;;6.97;;
52456;SDS011;38369;52.840;7.082;2023-04-12T10:51:11;10.80;;;6.90;;
52456;SDS011;38369;52.840;7.082;2023-04-12T10:53:38;8.15;;;7.35;;
52456;SDS011;38369;52.840;7.082;2023-04-12T11:01:15;11.48;;;7.45;;
52456;SDS011;38369;52.840;7.082;2023-04-12T11:04:27;7.00;;;5.78;;
52456;SDS011;38369;52.840;7.082;2023-04-12T11:09:17;8.13;;;7.00;;
52456;SDS011;38369;52.840;7.082;2023-04-12T11:11:43;9.60;;;6.82;;
52456;SDS011;38369;52.840;7.082;2023-04-12T11:14:09;6.28;;;5.20;;
52456;SDS011;38369;52.840;7.082;2023-04-12T11:19:21;6.60;;;4.50;;
52456;SDS011;38369;52.840;7.082;2023-04-12T11:21:47;9.10;;;5.65;;
52456;SDS011;38369;52.840;7.082;2023-04-12T11:24:14;8.80;;;4.18;;
52456;SDS011;38369;52.840;7.082;2023-04-12T11:26:40;8.68;;;4.93;;
52456;SDS011;38369;52.840;7.082;2023-04-12T11:29:07;7.07;;;3.83;;
52456;SDS011;38369;52.840;7.082;2023-04-12T11:31:37;8.40;;;4.15;;
52456;SDS011;38369;52.840;7.082;2023-04-12T11:34:03;9.40;;;4.25;;
52456;SDS011;38369;52.840;7.082;2023-04-12T11:36:29;7.07;;;4.38;;
52456;SDS011;38369;52.840;7.082;2023-04-12T11:38:55;8.38;;;4.78;;
52456;SDS011;38369;52.840;7.082;2023-04-12T11:41:21;10.45;;;5.20;;
52456;SDS011;38369;52.840;7.082;2023-04-12T11:43:47;8.15;;;4.75;;
52456;SDS011;38369;52.840;7.082;2023-04-12T11:46:14;10.05;;;5.07;;
52456;SDS011;38369;52.840;7.082;2023-04-12T11:48:43;12.75;;;5.63;;
52456;SDS011;38369;52.840;7.082;2023-04-12T11:51:19;6.57;;;4.95;;
52456;SDS011;38369;52.840;7.082;2023-04-12T11:53:46;8.88;;;4.22;;
52456;SDS011;38369;52.840;7.082;2023-04-12T11:56:16;8.88;;;4.93;;
52456;SDS011;38369;52.840;7.082;2023-04-12T11:58:42;10.18;;;4.45;;
52456;SDS011;38369;52.840;7.082;2023-04-12T12:01:12;8.15;;;4.50;;
52456;SDS011;38369;52.840;7.082;2023-04-12T12:03:38;12.05;;;4.35;;
52456;SDS011;38369;52.840;7.082;2023-04-12T12:06:05;11.20;;;4.13;;
52456;SDS011;38369;52.840;7.082;2023-04-12T12:08:31;13.65;;;4.15;;
52456;SDS011;38369;52.840;7.082;2023-04-12T12:10:57;10.77;;;4.40;;
52456;SDS011;38369;52.840;7.082;2023-04-12T12:13:24;14.20;;;4.93;;
52456;SDS011;38369;52.840;7.082;2023-04-12T12:15:53;9.65;;;3.67;;
52456;SDS011;38369;52.840;7.082;2023-04-12T12:18:23;7.65;;;3.75;;
52456;SDS011;38369;52.840;7.082;2023-04-12T12:20:51;10.63;;;4.22;;
52456;SDS011;38369;52.840;7.082;2023-04-12T12:23:29;11.68;;;3.55;;
52456;SDS011;38369;52.840;7.082;2023-04-12T12:25:56;11.45;;;4.03;;
52456;SDS011;38369;52.840;7.082;2023-04-12T12:28:23;6.75;;;3.05;;
52456;SDS011;38369;52.840;7.082;2023-04-12T12:30:52;12.07;;;3.85;;
52456;SDS011;38369;52.840;7.082;2023-04-12T12:33:19;7.55;;;3.10;;
52456;SDS011;38369;52.840;7.082;2023-04-12T12:35:45;13.70;;;3.92;;
52456;SDS011;38369;52.840;7.082;2023-04-12T12:38:12;9.38;;;3.90;;
52456;SDS011;38369;52.840;7.082;2023-04-12T12:40:38;9.77;;;3.50;;
52456;SDS011;38369;52.840;7.082;2023-04-12T12:43:04;12.20;;;3.75;;
52456;SDS011;38369;52.840;7.082;2023-04-12T12:45:31;8.02;;;3.42;;
52456;SDS011;38369;52.840;7.082;2023-04-12T12:48:03;10.60;;;3.22;;
52456;SDS011;38369;52.840;7.082;2023-04-12T12:50:32;8.05;;;3.25;;
52456;SDS011;38369;52.840;7.082;2023-04-12T12:52:59;10.43;;;4.13;;
52456;SDS011;38369;52.840;7.082;2023-04-12T12:55:25;11.75;;;3.83;;
52456;SDS011;38369;52.840;7.082;2023-04-12T12:57:52;11.73;;;3.55;;
52456;SDS011;38369;52.840;7.082;2023-04-12T13:00:20;10.05;;;3.45;;
52456;SDS011;38369;52.840;7.082;2023-04-12T13:02:47;11.65;;;2.97;;
52456;SDS011;38369;52.840;7.082;2023-04-12T13:05:13;6.95;;;2.85;;
52456;SDS011;38369;52.840;7.082;2023-04-12T13:07:39;6.75;;;3.05;;
52456;SDS011;38369;52.840;7.082;2023-04-12T13:10:05;11.63;;;3.20;;
52456;SDS011;38369;52.840;7.082;2023-04-12T13:12:32;8.70;;;2.47;;
52456;SDS011;38369;52.840;7.082;2023-04-12T13:14:58;10.43;;;2.65;;
52456;SDS011;38369;52.840;7.082;2023-04-12T13:17:27;12.77;;;3.05;;
52456;SDS011;38369;52.840;7.082;2023-04-12T13:19:54;7.20;;;3.30;;
52456;SDS011;38369;52.840;7.082;2023-04-12T13:22:20;7.90;;;2.45;;
52456;SDS011;38369;52.840;7.082;2023-04-12T13:24:46;8.80;;;2.50;;
52456;SDS011;38369;52.840;7.082;2023-04-12T13:27:12;8.00;;;2.95;;
52456;SDS011;38369;52.840;7.082;2023-04-12T13:29:39;9.30;;;2.40;;
52456;SDS011;38369;52.840;7.082;2023-04-12T13:32:05;9.57;;;2.50;;
52456;SDS011;38369;52.840;7.082;2023-04-12T13:34:32;8.77;;;2.85;;
52456;SDS011;38369;52.840;7.082;2023-04-12T13:36:58;6.03;;;2.42;;
52456;SDS011;38369;52.840;7.082;2023-04-12T13:39:24;8.13;;;2.17;;
52456;SDS011;38369;52.840;7.082;2023-04-12T13:41:50;10.75;;;2.88;;
52456;SDS011;38369;52.840;7.082;2023-04-12T13:44:16;8.77;;;3.03;;
52456;SDS011;38369;52.840;7.082;2023-04-12T13:46:42;11.38;;;2.08;;
52456;SDS011;38369;52.840;7.082;2023-04-12T13:49:08;9.70;;;2.67;;
52456;SDS011;38369;52.840;7.082;2023-04-12T13:51:34;11.45;;;2.53;;
52456;SDS011;38369;52.840;7.082;2023-04-12T13:54:01;8.82;;;3.08;;
52456;SDS011;38369;52.840;7.082;2023-04-12T13:56:27;9.10;;;2.40;;
52456;SDS011;38369;52.840;7.082;2023-04-12T13:58:53;11.02;;;3.13;;
52456;SDS011;38369;52.840;7.082;2023-04-12T14:01:19;9.85;;;2.90;;
52456;SDS011;38369;52.840;7.082;2023-04-12T14:03:47;10.15;;;2.75;;
52456;SDS011;38369;52.840;7.082;2023-04-12T14:06:13;17.98;;;2.85;;
52456;SDS011;38369;52.840;7.082;2023-04-12T14:08:40;10.52;;;3.00;;
52456;SDS011;38369;52.840;7.082;2023-04-12T14:11:06;7.53;;;2.45;;
52456;SDS011;38369;52.840;7.082;2023-04-12T14:13:32;9.52;;;2.15;;
52456;SDS011;38369;52.840;7.082;2023-04-12T14:15:58;11.45;;;3.17;;
52456;SDS011;38369;52.840;7.082;2023-04-12T14:18:24;7.68;;;1.98;;
52456;SDS011;38369;52.840;7.082;2023-04-12T14:20:50;18.75;;;3.28;;
52456;SDS011;38369;52.840;7.082;2023-04-12T14:23:23;9.98;;;2.95;;
52456;SDS011;38369;52.840;7.082;2023-04-12T14:25:49;10.35;;;2.40;;
52456;SDS011;38369;52.840;7.082;2023-04-12T14:28:16;12.93;;;2.70;;
52456;SDS011;38369;52.840;7.082;2023-04-12T14:30:45;9.60;;;2.13;;
52456;SDS011;38369;52.840;7.082;2023-04-12T14:33:14;10.40;;;1.83;;
52456;SDS011;38369;52.840;7.082;2023-04-12T14:35:41;8.15;;;2.17;;
52456;SDS011;38369;52.840;7.082;2023-04-12T14:38:07;7.00;;;2.22;;
52456;SDS011;38369;52.840;7.082;2023-04-12T14:40:33;7.30;;;1.35;;
52456;SDS011;38369;52.840;7.082;2023-04-12T14:42:59;7.70;;;2.22;;
52456;SDS011;38369;52.840;7.082;2023-04-12T14:45:26;8.05;;;1.88;;
52456;SDS011;38369;52.840;7.082;2023-04-12T14:47:52;13.55;;;2.15;;
52456;SDS011;38369;52.840;7.082;2023-04-12T14:50:18;11.48;;;2.42;;
52456;SDS011;38369;52.840;7.082;2023-04-12T14:52:45;9.70;;;2.58;;
52456;SDS011;38369;52.840;7.082;2023-04-12T14:55:11;11.90;;;2.47;;
52456;SDS011;38369;52.840;7.082;2023-04-12T14:57:38;10.15;;;2.72;;
52456;SDS011;38369;52.840;7.082;2023-04-12T15:00:05;14.13;;;2.28;;
52456;SDS011;38369;52.840;7.082;2023-04-12T15:02:37;7.55;;;2.25;;
52456;SDS011;38369;52.840;7.082;2023-04-12T15:05:04;6.80;;;2.10;;